Time;durP1;ratioP1;P1;durP2;ratioP2;P2;SDS_P1;SDS_P2;PMS_P1;PMS_P2;Temp;Humidity;BMP_temperature;BMP_pressure;BME280_temperature;BME280_humidity;BME280_pressure;Samples;Min_cycle;Max_cycle;Signal;HPM_P1;HPM_P2
2022/02/19 00:00:42;;;;;;;;;1.00;1.00;;;;;10.28;48.04;101053.00;2072612;28;47617;-56
2022/02/19 00:01:43;;;;;;;;;0.00;0.00;;;;;10.26;47.75;101044.19;2072795;28;47692;-56
2022/02/19 00:02:43;;;;;;;;;1.00;1.00;;;;;10.26;47.90;101058.34;2072685;28;47738;-58
2022/02/19 00:03:44;;;;;;;;;4.00;2.00;;;;;10.25;47.91;101053.94;2072728;28;47346;-56
2022/02/19 00:04:44;;;;;;;;;0.67;0.67;;;;;10.25;47.94;101053.06;2072739;28;47933;-57
2022/02/19 00:05:44;;;;;;;;;3.00;1.00;;;;;10.23;47.83;101055.75;2072762;28;47453;-55
2022/02/19 00:06:45;;;;;;;;;2.00;0.00;;;;;10.22;47.92;101058.41;2072745;28;47961;-57
2022/02/19 00:07:45;;;;;;;;;0.67;0.67;;;;;10.21;48.02;101061.94;2072541;28;47977;-56
2022/02/19 00:08:46;;;;;;;;;1.33;0.00;;;;;10.19;47.93;101054.00;2072898;28;47534;-57
2022/02/19 00:09:47;;;;;;;;;0.67;0.67;;;;;10.19;48.20;101069.03;2062657;28;47996;-55
2022/02/19 00:10:48;;;;;;;;;0.25;0.00;;;;;10.18;47.80;101059.34;2063170;28;45944;-58
2022/02/19 00:11:50;;;;;;;;;1.00;1.00;;;;;10.16;48.39;101059.31;2072565;28;47559;-55
2022/02/19 00:12:51;;;;;;;;;0.00;0.00;;;;;10.17;48.04;101061.13;2072706;28;47761;-56
2022/02/19 00:13:51;;;;;;;;;1.00;1.00;;;;;10.16;48.42;101064.63;2071879;28;47939;-54
2022/02/19 00:14:52;;;;;;;;;2.00;2.00;;;;;10.17;48.29;101063.75;2072756;28;47334;-54
2022/02/19 00:15:53;;;;;;;;;1.00;0.00;;;;;10.18;48.39;101054.03;2072334;28;47493;-54
2022/02/19 00:16:53;;;;;;;;;0.00;0.00;;;;;10.17;48.39;101069.06;2073160;28;45842;-56
2022/02/19 00:17:54;;;;;;;;;1.00;1.00;;;;;10.17;48.34;101069.06;2072545;28;47761;-56
2022/02/19 00:18:54;;;;;;;;;2.00;2.00;;;;;10.15;48.51;101062.00;2062875;28;47681;-54
2022/02/19 00:19:55;;;;;;;;;0.00;0.00;;;;;10.12;48.56;101068.25;2054914;28;47699;-54
2022/02/19 00:20:56;;;;;;;;;0.25;0.25;;;;;10.11;48.56;101084.19;2071849;28;47456;-56
2022/02/19 00:21:57;;;;;;;;;1.00;1.00;;;;;10.09;48.41;101078.03;2072557;28;48116;-55
2022/02/19 00:22:57;;;;;;;;;0.00;0.00;;;;;10.08;48.58;101073.63;2072602;28;48173;-54
2022/02/19 00:23:58;;;;;;;;;0.00;0.00;;;;;10.09;48.63;101086.84;2073494;28;47197;-55
2022/02/19 00:24:58;;;;;;;;;1.00;1.00;;;;;10.08;48.56;101077.16;2073537;28;47802;-55
2022/02/19 00:25:59;;;;;;;;;1.00;1.00;;;;;10.08;48.55;101077.16;2072166;28;47378;-55
2022/02/19 00:26:59;;;;;;;;;1.00;1.00;;;;;10.07;48.79;101087.78;2072281;28;47106;-55
2022/02/19 00:27:59;;;;;;;;;2.33;1.00;;;;;10.06;48.77;101089.56;2072359;28;47545;-56
2022/02/19 00:29:00;;;;;;;;;1.00;1.00;;;;;10.05;48.89;101085.16;2072683;28;47881;-54
2022/02/19 00:30:00;;;;;;;;;1.33;1.00;;;;;10.06;48.79;101091.34;2072393;28;47756;-54
2022/02/19 00:31:01;;;;;;;;;1.00;1.00;;;;;10.06;48.95;101083.38;2072333;28;47592;-55
2022/02/19 00:32:02;;;;;;;;;1.00;1.00;;;;;10.03;48.88;101089.56;2071651;28;47506;-56
2022/02/19 00:33:02;;;;;;;;;1.00;1.00;;;;;10.03;48.69;101092.22;2063341;28;47276;-57
2022/02/19 00:34:03;;;;;;;;;2.00;1.00;;;;;10.01;48.73;101084.28;2072131;28;47634;-55
2022/02/19 00:35:04;;;;;;;;;1.00;1.00;;;;;9.99;48.82;101094.06;2072548;28;47310;-55
2022/02/19 00:36:05;;;;;;;;;0.00;0.00;;;;;9.98;48.97;101107.31;2072186;28;48148;-56
2022/02/19 00:37:05;;;;;;;;;2.67;1.33;;;;;9.98;49.01;101091.41;2071761;28;47748;-56
2022/02/19 00:38:06;;;;;;;;;0.00;0.00;;;;;9.98;48.99;101102.91;2064176;28;47700;-56
2022/02/19 00:39:07;;;;;;;;;1.00;1.00;;;;;9.96;49.15;101096.75;2046721;28;47202;-57
2022/02/19 00:40:08;;;;;;;;;1.67;1.00;;;;;9.96;49.02;101102.06;2046967;28;47570;-56
2022/02/19 00:41:10;;;;;;;;;1.50;1.50;;;;;9.96;49.14;101099.41;2064539;28;46673;-56
2022/02/19 00:42:10;;;;;;;;;1.00;1.00;;;;;9.96;49.02;101101.16;2064106;28;48136;-57
2022/02/19 00:43:11;;;;;;;;;1.00;1.00;;;;;9.97;49.23;101097.63;2064393;28;47660;-56
2022/02/19 00:44:11;;;;;;;;;2.00;1.33;;;;;9.97;48.96;101098.50;2064369;28;47620;-56
2022/02/19 00:45:11;;;;;;;;;1.67;0.00;;;;;9.97;48.93;101101.16;2064400;28;47919;-56
2022/02/19 00:46:12;;;;;;;;;0.00;0.00;;;;;9.97;48.96;101109.09;2064617;28;47591;-56
2022/02/19 00:47:13;;;;;;;;;0.00;0.00;;;;;9.95;49.14;101110.03;2064132;28;47535;-55
2022/02/19 00:48:14;;;;;;;;;3.33;2.00;;;;;9.94;48.94;101106.50;2055636;28;47246;-56
2022/02/19 00:49:15;;;;;;;;;1.25;1.00;;;;;9.94;49.28;101116.22;2055454;28;47826;-56
2022/02/19 00:50:15;;;;;;;;;2.00;1.00;;;;;9.92;49.13;101110.94;2064400;28;46681;-58
2022/02/19 00:51:17;;;;;;;;;2.00;2.00;;;;;9.92;48.98;101103.00;2064287;28;47648;-56
2022/02/19 00:52:17;;;;;;;;;0.25;0.25;;;;;9.93;49.19;101106.53;2064483;28;47548;-55
2022/02/19 00:53:18;;;;;;;;;0.67;0.67;;;;;9.94;48.97;101122.41;2061010;28;47466;-57
2022/02/19 00:54:18;;;;;;;;;1.33;0.00;;;;;9.95;49.16;101115.34;2056251;28;47421;-55
2022/02/19 00:55:18;;;;;;;;;4.33;1.00;;;;;9.95;49.05;101117.97;2061768;28;47933;-56
2022/02/19 00:56:19;;;;;;;;;0.00;0.00;;;;;9.94;48.94;101122.41;2063974;28;47338;-55
2022/02/19 00:57:19;;;;;;;;;2.00;1.67;;;;;9.94;48.94;101129.50;2064063;28;46747;-57
2022/02/19 00:58:20;;;;;;;;;0.00;0.00;;;;;9.93;48.84;101130.38;2064375;28;47495;-55
2022/02/19 00:59:21;;;;;;;;;3.00;2.00;;;;;9.92;48.98;101126.84;2064175;28;47298;-55
2022/02/19 01:00:21;;;;;;;;;3.00;1.00;;;;;9.93;49.01;101133.91;2064196;28;48243;-56
2022/02/19 01:01:23;;;;;;;;;1.00;1.00;;;;;9.95;49.29;101128.59;2064134;28;47666;-57
2022/02/19 01:02:24;;;;;;;;;2.00;2.00;;;;;9.95;48.88;101126.81;2063919;28;47534;-56
2022/02/19 01:03:24;;;;;;;;;0.67;0.67;;;;;9.96;48.89;101136.50;2063803;28;45931;-55
2022/02/19 01:04:24;;;;;;;;;2.33;0.67;;;;;9.96;49.07;101133.88;2063943;28;47968;-57
2022/02/19 01:05:25;;;;;;;;;1.00;1.00;;;;;9.96;48.83;101127.69;2064266;28;47888;-56
2022/02/19 01:06:26;;;;;;;;;1.00;1.00;;;;;9.98;49.03;101131.19;2063915;28;47488;-58
2022/02/19 01:07:27;;;;;;;;;1.25;1.00;;;;;9.97;49.09;101130.31;2064064;28;47711;-53
2022/02/19 01:08:27;;;;;;;;;1.00;1.00;;;;;9.97;48.90;101132.97;2065050;28;47749;-54
2022/02/19 01:09:27;;;;;;;;;3.00;1.00;;;;;9.98;48.91;101132.06;2064802;28;47655;-57
2022/02/19 01:10:28;;;;;;;;;1.00;1.00;;;;;9.98;48.75;101133.84;2063849;28;47576;-57
2022/02/19 01:11:28;;;;;;;;;1.00;1.00;;;;;9.98;48.59;101133.84;2064502;28;47896;-57
2022/02/19 01:12:29;;;;;;;;;1.00;0.67;;;;;9.97;48.52;101130.31;2066147;28;47622;-56
2022/02/19 01:13:30;;;;;;;;;0.00;0.00;;;;;9.97;48.52;101150.66;2064284;28;47760;-57
2022/02/19 01:14:30;;;;;;;;;2.25;0.75;;;;;9.96;48.48;101130.34;2063763;28;47221;-56
2022/02/19 01:15:31;;;;;;;;;0.00;0.00;;;;;9.96;48.44;101140.94;2063992;28;47515;-56
2022/02/19 01:16:31;;;;;;;;;1.00;1.00;;;;;9.94;48.74;101134.78;2063729;28;47322;-55
2022/02/19 01:17:32;;;;;;;;;4.00;1.00;;;;;9.94;48.78;101133.00;2063922;28;47518;-54
2022/02/19 01:18:33;;;;;;;;;0.00;0.00;;;;;9.94;48.86;101145.38;2064082;28;48135;-55
2022/02/19 01:19:33;;;;;;;;;0.33;0.33;;;;;9.95;48.55;101133.88;2063986;28;47692;-54
2022/02/19 01:20:34;;;;;;;;;0.00;0.00;;;;;9.94;48.61;101134.78;2063668;28;47110;-54
2022/02/19 01:21:34;;;;;;;;;0.67;0.67;;;;;9.93;48.54;101143.63;2064013;28;46533;-54
2022/02/19 01:22:35;;;;;;;;;1.00;0.33;;;;;9.91;48.80;101138.34;2064112;28;47673;-54
2022/02/19 01:23:36;;;;;;;;;1.00;0.25;;;;;9.93;48.77;101143.63;2063859;28;47754;-56
2022/02/19 01:24:36;;;;;;;;;0.00;0.00;;;;;9.91;48.70;101140.09;2064309;28;47308;-56
2022/02/19 01:25:38;;;;;;;;;1.67;1.00;;;;;9.91;48.76;101137.44;2063791;28;48174;-56
2022/02/19 01:26:38;;;;;;;;;0.25;0.25;;;;;9.90;48.78;101138.34;2063919;28;47796;-58
2022/02/19 01:27:39;;;;;;;;;2.00;1.00;;;;;9.90;48.75;101141.88;2063696;28;47638;-55
2022/02/19 01:28:39;;;;;;;;;0.33;0.00;;;;;9.90;48.73;101141.00;2063906;28;47416;-56
2022/02/19 01:29:40;;;;;;;;;2.00;2.00;;;;;9.90;48.90;101141.00;2063688;28;47406;-54
2022/02/19 01:30:40;;;;;;;;;2.00;1.00;;;;;9.90;48.74;101141.00;2064285;28;46376;-56
2022/02/19 01:31:41;;;;;;;;;0.00;0.00;;;;;9.89;48.56;101147.19;2064009;28;47532;-57
2022/02/19 01:32:41;;;;;;;;;1.00;0.00;;;;;9.89;48.74;101152.50;2063608;28;47287;-56
2022/02/19 01:33:42;;;;;;;;;0.33;0.33;;;;;9.88;48.66;101153.41;2063808;28;47186;-55
2022/02/19 01:34:42;;;;;;;;;0.00;0.00;;;;;9.88;49.08;101137.50;2064020;28;47480;-54
2022/02/19 01:35:43;;;;;;;;;0.00;0.00;;;;;9.89;48.77;101144.56;2063666;28;47831;-56
2022/02/19 01:36:44;;;;;;;;;2.00;0.33;;;;;9.87;48.68;101133.97;2067034;28;48439;-56
2022/02/19 01:37:44;;;;;;;;;0.50;0.50;;;;;9.87;48.75;101135.75;2071839;28;47854;-57
2022/02/19 01:38:45;;;;;;;;;1.00;1.00;;;;;9.87;48.86;101146.34;2071098;28;48466;-57
2022/02/19 01:39:45;;;;;;;;;0.67;0.33;;;;;9.87;48.93;101133.97;2070975;28;47509;-57
2022/02/19 01:40:46;;;;;;;;;1.67;1.00;;;;;9.86;48.90;101137.50;2071936;28;47934;-55
2022/02/19 01:41:47;;;;;;;;;1.00;1.00;;;;;9.85;48.96;101134.88;2071862;28;46916;-56
2022/02/19 01:42:47;;;;;;;;;0.00;0.00;;;;;9.86;48.94;101147.25;2071964;28;47349;-56
2022/02/19 01:43:48;;;;;;;;;1.00;0.00;;;;;9.86;49.03;101147.25;2071798;28;47473;-56
2022/02/19 01:44:52;;;;;;;;;0.00;0.00;;;;;9.85;48.85;101141.06;2071673;28;47489;-56
2022/02/19 01:45:53;;;;;;;;;2.00;0.75;;;;;9.83;48.82;101140.22;2071847;28;47773;-56
2022/02/19 01:46:53;;;;;;;;;2.00;1.00;;;;;9.84;49.21;101146.38;2072129;28;47420;-56
2022/02/19 01:47:54;;;;;;;;;0.33;0.33;;;;;9.83;49.15;101142.88;2071522;28;47485;-56
2022/02/19 01:48:54;;;;;;;;;1.00;1.00;;;;;9.83;49.17;101139.34;2062371;28;47450;-55
2022/02/19 01:49:54;;;;;;;;;2.00;0.00;;;;;9.82;49.07;101142.88;2062594;28;47595;-56
2022/02/19 01:50:55;;;;;;;;;0.00;0.00;;;;;9.81;49.25;101147.31;2071157;28;45898;-55
2022/02/19 01:51:56;;;;;;;;;0.00;0.00;;;;;9.81;49.17;101151.75;2071352;28;47850;-55
2022/02/19 01:52:56;;;;;;;;;0.33;0.33;;;;;9.79;49.28;101143.81;2072214;28;47506;-55
2022/02/19 01:54:00;;;;;;;;;2.00;2.00;;;;;9.78;49.51;101143.78;2071458;28;47612;-55
2022/02/19 01:55:01;;;;;;;;;2.25;2.25;;;;;9.77;49.49;101137.63;2071858;28;47937;-55
2022/02/19 01:56:03;;;;;;;;;1.50;1.00;;;;;9.76;49.41;101141.16;2071124;28;47649;-55
2022/02/19 01:57:04;;;;;;;;;0.50;0.50;;;;;9.74;49.50;101143.84;2071272;28;47708;-57
2022/02/19 01:58:06;;;;;;;;;0.67;0.67;;;;;9.75;49.70;101142.06;2070966;28;47772;-58
2022/02/19 01:59:07;;;;;;;;;1.50;0.25;;;;;9.74;49.44;101150.91;2071519;28;47538;-58
2022/02/19 02:00:08;;;;;;;;;1.00;1.00;;;;;9.72;49.37;101148.28;2071748;28;47586;-56
2022/02/19 02:01:09;;;;;;;;;1.75;0.75;;;;;9.71;49.50;101149.19;2071831;28;48070;-56
2022/02/19 02:02:10;;;;;;;;;2.00;1.00;;;;;9.70;49.71;101149.19;2071964;28;47378;-55
2022/02/19 02:03:12;;;;;;;;;1.50;0.75;;;;;9.71;50.08;101158.91;2072069;28;47651;-55
2022/02/19 02:04:13;;;;;;;;;1.00;1.00;;;;;9.70;49.65;101155.38;2071560;28;48217;-55
2022/02/19 02:05:13;;;;;;;;;1.00;1.00;;;;;9.71;49.67;101159.78;2071921;28;47373;-56
2022/02/19 02:06:16;;;;;;;;;1.00;1.00;;;;;9.71;49.79;101157.13;2071592;28;48262;-56
2022/02/19 02:07:16;;;;;;;;;1.00;1.00;;;;;9.70;49.89;101159.81;2071786;28;48100;-54
2022/02/19 02:08:16;;;;;;;;;3.00;0.67;;;;;9.72;49.77;101160.66;2071946;28;47924;-56
2022/02/19 02:09:18;;;;;;;;;0.00;0.00;;;;;9.70;49.96;101159.81;2071231;28;47736;-55
2022/02/19 02:10:18;;;;;;;;;0.50;0.50;;;;;9.70;49.85;101151.84;2071881;28;47478;-56
2022/02/19 02:11:19;;;;;;;;;1.00;1.00;;;;;9.69;49.93;101156.28;2071398;28;47619;-56
2022/02/19 02:12:19;;;;;;;;;1.67;1.67;;;;;9.70;50.07;101157.16;2071510;28;47787;-56
2022/02/19 02:13:20;;;;;;;;;2.00;1.00;;;;;9.71;49.92;101156.25;2071435;28;47666;-56
2022/02/19 02:14:20;;;;;;;;;1.00;1.00;;;;;9.71;50.03;101162.44;2071705;28;47525;-55
2022/02/19 02:15:25;;;;;;;;;1.00;1.00;;;;;9.72;49.98;101158.00;2071563;28;47488;-56
2022/02/19 02:16:37;;;;;;;;;0.00;0.00;;;;;9.72;49.99;101160.66;2071816;28;48028;-54
2022/02/19 02:17:39;;;;;;;;;0.25;0.25;;;;;9.72;50.06;101173.91;2071577;28;47590;-57
2022/02/19 02:18:43;;;;;;;;;1.50;1.00;;;;;9.72;50.29;101173.91;2071458;28;47214;-56
2022/02/19 02:19:43;;;;;;;;;0.75;0.75;;;;;9.70;50.08;101171.28;2071768;28;47677;-57
2022/02/19 02:20:44;;;;;;;;;0.67;0.67;;;;;9.69;50.03;101173.94;2071894;28;47956;-56
2022/02/19 02:21:44;;;;;;;;;0.00;0.00;;;;;9.69;50.10;101168.66;2071530;28;47434;-56
2022/02/19 02:22:45;;;;;;;;;1.00;1.00;;;;;9.68;50.34;101165.13;2072021;28;47416;-57
2022/02/19 02:23:45;;;;;;;;;1.50;1.50;;;;;9.70;50.17;101167.75;2071492;28;47830;-56
2022/02/19 02:24:47;;;;;;;;;0.67;0.00;;;;;9.70;50.31;101176.59;2072005;28;47179;-55
2022/02/19 02:25:48;;;;;;;;;1.75;1.00;;;;;9.71;50.17;101169.50;2071493;28;48031;-54
2022/02/19 02:26:50;;;;;;;;;2.33;1.00;;;;;9.71;50.36;101169.50;2070535;28;45200;-54
2022/02/19 02:27:50;;;;;;;;;0.00;0.00;;;;;9.72;50.36;101173.91;2070462;28;47368;-57
2022/02/19 02:28:51;;;;;;;;;1.33;1.00;;;;;9.72;50.25;101161.53;2071791;28;47436;-56
2022/02/19 02:29:52;;;;;;;;;1.00;1.00;;;;;9.73;50.23;101167.72;2071301;28;47935;-57
2022/02/19 02:30:52;;;;;;;;;1.00;1.00;;;;;9.74;50.35;101174.78;2071883;28;47421;-58
2022/02/19 02:31:52;;;;;;;;;1.00;1.00;;;;;9.73;50.23;101167.72;2071424;28;47404;-56
2022/02/19 02:32:53;;;;;;;;;0.00;0.00;;;;;9.73;50.15;101165.06;2072020;28;46799;-56
2022/02/19 02:33:53;;;;;;;;;1.00;0.00;;;;;9.76;50.10;101172.09;2071544;28;47913;-54
2022/02/19 02:34:54;;;;;;;;;1.00;1.00;;;;;9.74;50.06;101162.38;2071842;28;47580;-55
2022/02/19 02:35:55;;;;;;;;;1.00;0.33;;;;;9.73;50.35;101170.38;2071381;28;47075;-58
2022/02/19 02:36:55;;;;;;;;;1.33;1.00;;;;;9.70;50.33;101170.41;2071255;28;47678;-57
2022/02/19 02:37:55;;;;;;;;;0.67;0.67;;;;;9.69;50.23;101172.19;2071503;28;47648;-57
2022/02/19 02:38:58;;;;;;;;;0.75;0.75;;;;;9.69;50.30;101168.66;2071679;28;47732;-56
2022/02/19 02:39:58;;;;;;;;;0.00;0.00;;;;;9.67;50.46;101166.03;2071243;28;47769;-57
2022/02/19 02:40:59;;;;;;;;;0.33;0.00;;;;;9.67;50.50;101167.78;2071166;28;47611;-56
2022/02/19 02:42:00;;;;;;;;;1.00;1.00;;;;;9.64;50.38;101170.44;2071516;28;47550;-55
2022/02/19 02:43:01;;;;;;;;;1.00;1.00;;;;;9.62;50.53;101169.59;2071723;28;47670;-56
2022/02/19 02:44:02;;;;;;;;;1.50;1.00;;;;;9.63;50.44;101166.06;2070757;28;47645;-56
2022/02/19 02:45:03;;;;;;;;;2.00;1.00;;;;;9.61;50.58;101175.78;2071012;28;48010;-57
2022/02/19 02:46:04;;;;;;;;;1.00;1.00;;;;;9.60;50.46;101172.25;2070746;28;47302;-55
2022/02/19 02:47:04;;;;;;;;;2.00;2.00;;;;;9.61;50.42;101167.84;2071251;28;47412;-57
2022/02/19 02:48:05;;;;;;;;;1.00;0.00;;;;;9.59;50.69;101165.22;2071663;28;48077;-55
2022/02/19 02:49:06;;;;;;;;;0.67;0.00;;;;;9.59;50.34;101169.63;2071631;28;47594;-56
2022/02/19 02:50:07;;;;;;;;;0.00;0.00;;;;;9.59;50.59;101167.88;2070816;28;47132;-54
2022/02/19 02:51:08;;;;;;;;;1.25;1.00;;;;;9.57;50.66;101161.72;2071130;28;48084;-57
2022/02/19 02:52:09;;;;;;;;;1.00;0.00;;;;;9.56;50.53;101167.91;2071656;28;47493;-54
2022/02/19 02:53:10;;;;;;;;;0.50;0.00;;;;;9.55;50.81;101173.22;2071313;28;47763;-54
2022/02/19 02:54:10;;;;;;;;;0.33;0.00;;;;;9.53;50.62;101181.19;2071598;28;47558;-57
2022/02/19 02:55:12;;;;;;;;;2.33;1.00;;;;;9.53;50.83;101167.94;2071242;28;48057;-53
2022/02/19 02:56:12;;;;;;;;;1.00;1.00;;;;;9.54;50.85;101182.06;2071697;28;47825;-54
2022/02/19 02:57:13;;;;;;;;;1.67;1.67;;;;;9.53;50.71;101181.19;2071497;28;47542;-55
2022/02/19 02:58:13;;;;;;;;;2.33;1.33;;;;;9.53;50.80;101178.53;2069838;28;47844;-54
2022/02/19 02:59:13;;;;;;;;;2.33;1.00;;;;;9.52;50.86;101171.44;2070450;28;48055;-56
2022/02/19 03:00:16;;;;;;;;;1.00;1.00;;;;;9.51;50.87;101185.59;2071621;28;48007;-56
2022/02/19 03:01:17;;;;;;;;;0.00;0.00;;;;;9.49;50.90;101167.97;2071119;28;47273;-55
2022/02/19 03:02:17;;;;;;;;;0.00;0.00;;;;;9.50;50.96;101180.31;2071619;28;47803;-56
2022/02/19 03:03:18;;;;;;;;;1.00;0.00;;;;;9.48;51.16;101172.38;2071098;28;47421;-57
2022/02/19 03:04:18;;;;;;;;;0.00;0.00;;;;;9.48;51.07;101182.09;2071628;28;47471;-56
2022/02/19 03:05:19;;;;;;;;;0.00;0.00;;;;;9.47;51.22;101181.22;2071284;28;47509;-56
2022/02/19 03:06:19;;;;;;;;;2.00;1.00;;;;;9.47;50.95;101186.53;2071349;28;47582;-55
2022/02/19 03:07:19;;;;;;;;;2.00;0.00;;;;;9.48;51.11;101190.06;2071502;28;47804;-57
2022/02/19 03:08:20;;;;;;;;;0.00;0.00;;;;;9.46;51.02;101182.13;2071570;28;47787;-57
2022/02/19 03:09:20;;;;;;;;;1.00;0.00;;;;;9.44;50.93;101190.09;2070850;28;47970;-56
2022/02/19 03:10:21;;;;;;;;;1.33;1.33;;;;;9.45;51.24;101190.97;2071125;28;47660;-56
2022/02/19 03:11:21;;;;;;;;;1.00;1.00;;;;;9.45;51.22;101196.28;2071235;28;47982;-55
2022/02/19 03:12:23;;;;;;;;;2.33;1.33;;;;;9.45;51.18;101196.28;2071441;28;47690;-56
2022/02/19 03:13:23;;;;;;;;;0.00;0.00;;;;;9.45;51.17;101190.97;2071221;28;47383;-54
2022/02/19 03:14:24;;;;;;;;;2.33;1.33;;;;;9.44;51.60;101195.41;2071388;28;47005;-56
2022/02/19 03:15:24;;;;;;;;;2.00;1.00;;;;;9.46;51.20;101198.03;2071672;28;48269;-58
2022/02/19 03:16:26;;;;;;;;;2.33;1.00;;;;;9.45;51.21;101190.97;2071735;28;47533;-56
2022/02/19 03:17:26;;;;;;;;;2.00;1.25;;;;;9.44;51.19;101200.69;2071231;28;47600;-56
2022/02/19 03:18:27;;;;;;;;;1.00;1.00;;;;;9.44;51.23;101197.16;2071519;28;47282;-56
2022/02/19 03:19:27;;;;;;;;;1.00;0.00;;;;;9.44;51.39;101205.13;2071014;28;47354;-57
2022/02/19 03:20:28;;;;;;;;;1.00;1.00;;;;;9.44;51.20;101203.34;2071364;28;47572;-56
2022/02/19 03:21:28;;;;;;;;;1.00;1.00;;;;;9.45;51.36;101206.88;2071238;28;47977;-56
2022/02/19 03:22:28;;;;;;;;;1.00;1.00;;;;;9.46;51.21;101211.28;2071669;28;47410;-57
2022/02/19 03:23:29;;;;;;;;;1.00;1.00;;;;;9.46;51.27;101203.31;2071370;28;47284;-56
2022/02/19 03:24:30;;;;;;;;;0.33;0.33;;;;;9.46;51.21;101208.63;2061703;28;47797;-54
2022/02/19 03:25:30;;;;;;;;;0.25;0.25;;;;;9.48;51.39;101214.78;2062164;28;47938;-56
2022/02/19 03:26:30;;;;;;;;;0.00;0.00;;;;;9.47;51.46;101212.16;2071460;28;47485;-56
2022/02/19 03:27:31;;;;;;;;;1.67;1.00;;;;;9.49;51.40;101216.53;2071466;28;47092;-56
2022/02/19 03:28:31;;;;;;;;;2.00;0.33;;;;;9.50;51.27;101214.75;2071205;28;48124;-56
2022/02/19 03:29:34;;;;;;;;;1.00;1.00;;;;;9.50;51.26;101214.75;2071118;28;47418;-56
2022/02/19 03:30:34;;;;;;;;;0.00;0.00;;;;;9.50;51.57;101214.75;2070103;28;47989;-56
2022/02/19 03:31:35;;;;;;;;;0.33;0.33;;;;;9.51;51.40;101217.38;2070777;28;47718;-56
2022/02/19 03:32:36;;;;;;;;;0.00;0.00;;;;;9.51;51.20;101217.38;2071499;28;47645;-54
2022/02/19 03:33:36;;;;;;;;;3.00;0.25;;;;;9.52;51.26;101215.63;2070877;28;46238;-56
2022/02/19 03:34:37;;;;;;;;;0.00;0.00;;;;;9.51;51.43;101211.22;2070784;28;48046;-56
2022/02/19 03:35:37;;;;;;;;;1.00;0.00;;;;;9.52;51.41;101212.97;2071067;28;47670;-55
2022/02/19 03:36:37;;;;;;;;;1.00;1.00;;;;;9.53;51.43;101214.72;2070789;28;47617;-57
2022/02/19 03:37:39;;;;;;;;;0.67;0.67;;;;;9.55;51.46;101223.56;2071037;28;48237;-57
2022/02/19 03:38:40;;;;;;;;;1.75;1.25;;;;;9.55;51.20;101220.91;2071915;28;45626;-55
2022/02/19 03:39:40;;;;;;;;;1.00;0.00;;;;;9.54;51.44;101214.75;2071343;28;48373;-55
2022/02/19 03:40:41;;;;;;;;;0.67;0.67;;;;;9.54;51.09;101219.16;2071063;28;47435;-55
2022/02/19 03:41:41;;;;;;;;;0.00;0.00;;;;;9.55;51.38;101229.75;2063847;28;47557;-54
2022/02/19 03:42:42;;;;;;;;;0.00;0.00;;;;;9.54;51.15;101227.09;2062005;28;47650;-55
2022/02/19 03:43:43;;;;;;;;;1.00;1.00;;;;;9.53;51.35;101222.66;2070570;28;47527;-54
2022/02/19 03:44:43;;;;;;;;;0.33;0.33;;;;;9.52;51.39;101221.78;2071233;28;47467;-56
2022/02/19 03:45:45;;;;;;;;;1.67;1.00;;;;;9.52;51.21;101219.16;2071068;28;48079;-55
2022/02/19 03:46:45;;;;;;;;;1.00;1.00;;;;;9.50;51.21;101226.22;2070734;28;47801;-55
2022/02/19 03:47:45;;;;;;;;;0.33;0.33;;;;;9.50;51.14;101223.59;2070770;28;47624;-55
2022/02/19 03:48:46;;;;;;;;;1.33;1.00;;;;;9.48;51.36;101222.72;2071153;28;47214;-56
2022/02/19 03:49:47;;;;;;;;;1.33;1.33;;;;;9.48;51.26;101224.50;2071164;28;47878;-55
2022/02/19 03:50:47;;;;;;;;;2.00;0.33;;;;;9.47;51.35;101223.63;2070971;28;47547;-56
2022/02/19 03:51:47;;;;;;;;;0.33;0.00;;;;;9.46;51.23;101221.88;2071206;28;47772;-57
2022/02/19 03:52:48;;;;;;;;;1.67;1.33;;;;;9.46;51.54;101223.63;2070999;28;47552;-57
2022/02/19 03:53:49;;;;;;;;;0.33;0.00;;;;;9.47;51.54;101217.44;2064278;28;47374;-55
2022/02/19 03:54:49;;;;;;;;;1.33;1.33;;;;;9.47;51.38;101220.97;2068595;28;47681;-55
2022/02/19 03:55:50;;;;;;;;;2.00;1.67;;;;;9.47;51.57;101223.63;2070724;28;48131;-57
2022/02/19 03:56:50;;;;;;;;;3.00;1.00;;;;;9.47;51.56;101220.09;2079023;28;47292;-55
2022/02/19 03:57:50;;;;;;;;;1.00;1.00;;;;;9.47;51.42;101233.34;2078619;28;47853;-56
2022/02/19 03:58:51;;;;;;;;;1.00;1.00;;;;;9.47;51.44;101225.38;2071050;28;47330;-55
2022/02/19 03:59:51;;;;;;;;;0.00;0.00;;;;;9.47;51.58;101226.28;2071204;28;47834;-54
2022/02/19 04:00:52;;;;;;;;;0.00;0.00;;;;;9.48;51.42;101232.44;2070952;28;47966;-57
2022/02/19 04:01:52;;;;;;;;;0.67;0.67;;;;;9.47;51.55;101236.88;2071403;28;47786;-58
2022/02/19 04:02:53;;;;;;;;;0.00;0.00;;;;;9.48;51.60;101235.97;2071376;28;47444;-55
2022/02/19 04:03:53;;;;;;;;;1.00;1.00;;;;;9.48;51.77;101230.66;2071125;28;47757;-58
2022/02/19 04:04:53;;;;;;;;;0.67;0.00;;;;;9.49;51.34;101236.84;2071193;28;47458;-58
2022/02/19 04:05:57;;;;;;;;;0.00;0.00;;;;;9.50;51.43;101238.59;2070938;28;47468;-55
2022/02/19 04:06:58;;;;;;;;;1.00;1.00;;;;;9.50;51.33;101236.84;2071212;28;47995;-57
2022/02/19 04:07:58;;;;;;;;;2.00;1.00;;;;;9.50;51.46;101236.84;2071128;28;47408;-57
2022/02/19 04:08:59;;;;;;;;;2.00;0.33;;;;;9.51;51.43;101235.06;2070944;28;47699;-57
2022/02/19 04:09:59;;;;;;;;;1.00;0.00;;;;;9.51;51.32;101238.59;2070835;28;47704;-55
2022/02/19 04:11:00;;;;;;;;;0.33;0.00;;;;;9.50;51.21;101233.31;2070971;28;47342;-55
2022/02/19 04:12:00;;;;;;;;;0.67;0.67;;;;;9.48;51.48;101237.75;2071202;28;48166;-54
2022/02/19 04:13:00;;;;;;;;;0.00;0.00;;;;;9.45;51.45;101243.94;2071105;28;47522;-55
2022/02/19 04:14:01;;;;;;;;;1.00;1.00;;;;;9.46;51.36;101244.84;2071216;28;47331;-55
2022/02/19 04:15:03;;;;;;;;;1.33;1.00;;;;;9.45;51.39;101246.59;2071169;28;47735;-55
2022/02/19 04:16:04;;;;;;;;;0.50;0.50;;;;;9.44;51.54;101247.50;2045257;28;47666;-55
2022/02/19 04:17:04;;;;;;;;;0.00;0.00;;;;;9.44;51.42;101256.31;2049756;28;47381;-56
2022/02/19 04:18:05;;;;;;;;;1.00;1.00;;;;;9.44;51.49;101253.66;2071403;28;47233;-55
2022/02/19 04:19:05;;;;;;;;;0.00;0.00;;;;;9.45;51.34;101262.50;2071605;28;46306;-55
2022/02/19 04:20:07;;;;;;;;;0.00;0.00;;;;;9.46;51.49;101260.72;2071572;28;47833;-57
2022/02/19 04:21:07;;;;;;;;;2.00;1.00;;;;;9.46;51.42;101258.06;2070734;28;48169;-56
2022/02/19 04:22:08;;;;;;;;;0.00;0.00;;;;;9.45;51.22;101257.19;2070792;28;47580;-56
2022/02/19 04:23:08;;;;;;;;;0.00;0.00;;;;;9.43;51.44;101256.34;2070857;28;47390;-55
2022/02/19 04:24:09;;;;;;;;;0.67;0.67;;;;;9.44;51.46;101255.44;2070998;28;47549;-55
2022/02/19 04:25:10;;;;;;;;;0.33;0.33;;;;;9.43;51.53;101256.34;2071327;28;47393;-55
2022/02/19 04:26:11;;;;;;;;;0.00;0.00;;;;;9.42;51.44;101254.59;2071060;28;47879;-56
2022/02/19 04:27:11;;;;;;;;;1.00;1.00;;;;;9.41;51.51;101247.53;2071281;28;47629;-55
2022/02/19 04:28:11;;;;;;;;;0.33;0.33;;;;;9.40;51.30;101264.28;2070873;28;47966;-55
2022/02/19 04:29:12;;;;;;;;;1.00;1.00;;;;;9.37;51.40;101253.72;2070922;28;47498;-54
2022/02/19 04:30:12;;;;;;;;;1.00;0.00;;;;;9.37;51.44;101253.72;2070945;28;47804;-56
2022/02/19 04:31:13;;;;;;;;;2.00;0.00;;;;;9.37;51.52;101253.72;2071245;28;47227;-54
2022/02/19 04:32:14;;;;;;;;;0.00;0.00;;;;;9.37;51.60;101251.94;2071041;28;47850;-55
2022/02/19 04:33:14;;;;;;;;;2.00;1.00;;;;;9.37;51.56;101248.44;2071127;28;47767;-56
2022/02/19 04:34:15;;;;;;;;;2.00;1.67;;;;;9.37;51.44;101253.72;2070863;28;47748;-55
2022/02/19 04:35:17;;;;;;;;;1.00;1.00;;;;;9.37;51.45;101264.31;2071072;28;47701;-55
2022/02/19 04:36:17;;;;;;;;;1.00;0.00;;;;;9.35;51.60;101269.63;2070942;28;47540;-55
2022/02/19 04:37:18;;;;;;;;;1.00;1.00;;;;;9.34;51.63;101267.88;2078393;28;47401;-55
2022/02/19 04:38:23;;;;;;;;;0.67;0.00;;;;;9.33;51.61;101265.25;2071046;28;47595;-56
2022/02/19 04:39:23;;;;;;;;;1.25;1.25;;;;;9.31;51.34;101270.56;2077085;28;46299;-55
2022/02/19 04:40:24;;;;;;;;;1.00;1.00;;;;;9.31;51.67;101272.34;2076253;28;47854;-56
2022/02/19 04:41:25;;;;;;;;;0.00;0.00;;;;;9.30;51.73;101271.44;2062755;28;45857;-56
2022/02/19 04:42:25;;;;;;;;;0.00;0.00;;;;;9.28;51.81;101278.53;2073272;28;47526;-56
2022/02/19 04:43:26;;;;;;;;;1.00;0.00;;;;;9.28;51.73;101280.31;2077836;28;47701;-56
2022/02/19 04:44:26;;;;;;;;;0.33;0.00;;;;;9.28;51.63;101275.00;2062852;28;46462;-56
2022/02/19 04:45:27;;;;;;;;;1.00;1.00;;;;;9.28;51.64;101269.72;2062373;28;47969;-56